Terminal Aerodrome Forecast
Issued by NWS

Home | Current Version | Previous Version | Text Only | Print | Product List | Glossary On
Versions: 1 2 3 4 5 6 7 8 9 10 11 12 13 14 15 16 17 18 19 20
000
FTUS46 KMTR 061750 CCA
TAFMRY
TAF COR
KMRY 061750Z 0618/0718 28006KT P6SM FEW010 SCT015
     FM062000 29011G16KT P6SM FEW015
     FM070100 25005KT P6SM BKN010
     FM070200 24004KT P6SM OVC008
     FM070700 VRB03KT 6SM BR OVC005=

USA.gov is the U.S. government's official web portal to all federal, state and local government web resources and services.